createdAt,value
2023-03-22T06:01:10.529Z,25.00
2023-03-22T06:05:10.892Z,25.00
2023-03-22T06:09:17.345Z,0.00
2023-03-22T06:13:12.584Z,0.00
2023-03-22T06:17:11.400Z,0.00
2023-03-22T06:21:10.727Z,0.00
2023-03-22T06:25:10.834Z,0.00
2023-03-22T06:29:10.987Z,27.10
2023-03-22T06:33:11.132Z,25.56
2023-03-22T06:37:11.253Z,28.67
2023-03-22T06:41:11.426Z,25.00
2023-03-22T06:45:11.474Z,35.33
2023-03-22T06:49:11.626Z,27.59
2023-03-22T06:53:25.437Z,35.39
2023-03-22T06:57:11.735Z,31.19
2023-03-22T07:01:11.707Z,26.72
2023-03-22T07:05:11.631Z,26.41
2023-03-22T07:09:11.632Z,27.97
2023-03-22T07:13:11.597Z,34.94
2023-03-22T07:17:11.605Z,45.61
2023-03-22T07:21:11.642Z,41.17
2023-03-22T07:25:11.739Z,47.52
2023-03-22T07:29:11.727Z,40.71
2023-03-22T07:33:11.700Z,30.69
2023-03-22T07:37:11.740Z,37.70
2023-03-22T07:41:11.641Z,29.70
2023-03-22T07:45:11.639Z,34.32
2023-03-22T07:49:11.594Z,31.88
2023-03-22T07:53:11.653Z,37.26
2023-03-22T07:57:11.490Z,34.23
2023-03-22T08:01:11.488Z,36.00
2023-03-22T08:05:11.569Z,26.43
2023-03-22T08:09:11.390Z,33.49
2023-03-22T08:13:11.425Z,31.28
2023-03-22T08:17:11.508Z,31.07
2023-03-22T08:21:12.033Z,23.82
2023-03-22T08:25:11.669Z,38.44
2023-03-22T08:29:11.893Z,43.59
2023-03-22T08:33:12.976Z,47.84
2023-03-22T08:37:12.203Z,40.99
2023-03-22T08:41:13.029Z,27.75
2023-03-22T08:45:13.451Z,47.72
2023-03-22T08:49:12.484Z,50.74
2023-03-22T08:53:12.723Z,76.90
2023-03-22T08:57:12.783Z,79.34
2023-03-22T09:01:13.091Z,252.76
2023-03-22T09:05:13.335Z,139.59
2023-03-22T09:09:13.488Z,153.11
2023-03-22T09:13:13.606Z,86.56
2023-03-22T09:17:13.663Z,60.46
2023-03-22T09:21:15.449Z,59.10
2023-03-22T09:25:13.587Z,62.90
2023-03-22T09:29:13.768Z,74.63
2023-03-22T09:33:13.390Z,72.98
2023-03-22T09:37:13.516Z,71.85
2023-03-22T09:41:13.478Z,86.05
2023-03-22T09:45:13.278Z,95.23
2023-03-22T09:49:13.254Z,98.76
2023-03-22T09:53:13.194Z,107.78
2023-03-22T09:57:13.158Z,114.97
2023-03-22T10:01:13.331Z,119.24
2023-03-22T10:05:13.150Z,126.42
2023-03-22T10:09:13.038Z,121.68
2023-03-22T10:13:13.057Z,102.86
2023-03-22T10:17:12.990Z,105.50
2023-03-22T10:21:12.985Z,129.48
2023-03-22T10:25:13.024Z,130.20
2023-03-22T10:29:12.961Z,113.17
2023-03-22T10:33:12.803Z,114.05
2023-03-22T10:37:12.762Z,113.37
2023-03-22T10:41:12.823Z,103.18
2023-03-22T10:45:12.848Z,62.76
2023-03-22T10:49:12.657Z,60.57
2023-03-22T10:53:12.717Z,35.50
2023-03-22T10:57:12.563Z,26.75
2023-03-22T11:01:12.900Z,42.90
2023-03-22T11:05:12.874Z,62.39
2023-03-22T11:09:13.121Z,93.78
2023-03-22T11:13:12.549Z,97.37
2023-03-22T11:17:12.604Z,117.96
2023-03-22T11:21:12.505Z,123.19
2023-03-22T11:25:15.565Z,119.79
2023-03-22T11:29:12.526Z,126.91
2023-03-22T11:33:12.433Z,126.12
2023-03-22T11:37:15.550Z,137.55
2023-03-22T11:41:12.313Z,128.50
2023-03-22T11:45:12.245Z,124.50
2023-03-22T11:49:12.264Z,139.72
2023-03-22T11:53:12.194Z,138.51
2023-03-22T11:57:12.154Z,135.57
2023-03-22T12:01:12.229Z,139.81
2023-03-22T12:05:13.052Z,139.78
2023-03-22T12:09:12.152Z,114.54
2023-03-22T12:13:12.130Z,112.77
2023-03-22T12:17:12.013Z,110.87
2023-03-22T12:21:11.938Z,114.69
2023-03-22T12:25:11.864Z,107.38
2023-03-22T12:29:12.099Z,112.20
2023-03-22T12:33:11.844Z,112.16
2023-03-22T12:37:11.839Z,118.15
2023-03-22T12:41:12.004Z,122.73
2023-03-22T12:45:12.627Z,104.17
2023-03-22T12:49:11.695Z,123.57
2023-03-22T12:53:11.682Z,120.70
2023-03-22T12:57:11.620Z,115.67
2023-03-22T13:01:11.605Z,123.20
2023-03-22T13:05:11.489Z,125.50
2023-03-22T13:09:11.575Z,110.68
2023-03-22T13:13:11.552Z,122.28
2023-03-22T13:17:11.604Z,129.44
2023-03-22T13:21:11.855Z,139.56
2023-03-22T13:25:11.930Z,139.24
2023-03-22T13:29:11.987Z,153.53
2023-03-22T13:33:12.137Z,157.95
2023-03-22T13:37:12.091Z,212.35
2023-03-22T13:41:12.141Z,175.87
2023-03-22T13:45:12.329Z,175.05
2023-03-22T13:49:12.382Z,157.34
2023-03-22T13:53:12.257Z,163.21
2023-03-22T13:57:12.557Z,154.74
2023-03-22T14:01:12.294Z,163.75
2023-03-22T14:05:12.602Z,143.20
2023-03-22T14:09:12.118Z,145.81
2023-03-22T14:13:12.128Z,143.82
2023-03-22T14:17:11.998Z,139.86
2023-03-22T14:21:14.844Z,147.39
2023-03-22T14:46:02.323Z,25.00
2023-03-22T14:50:02.272Z,25.62
2023-03-22T14:54:02.209Z,26.09
2023-03-22T14:58:02.176Z,29.99
2023-03-22T15:02:02.264Z,25.00
2023-03-22T15:06:02.125Z,33.70
2023-03-22T15:10:02.093Z,37.52
2023-03-22T15:14:02.047Z,39.45
2023-03-22T15:18:01.976Z,38.31
2023-03-22T15:22:01.965Z,43.53
2023-03-22T15:26:01.917Z,52.32
2023-03-22T15:30:01.891Z,57.50
2023-03-22T15:34:01.859Z,67.32
2023-03-22T15:38:01.845Z,81.73
2023-03-22T15:42:01.828Z,185.04
2023-03-22T15:46:01.717Z,135.96
2023-03-22T15:50:01.736Z,156.58
2023-03-22T15:54:01.693Z,181.64
2023-03-22T15:58:01.635Z,175.66
2023-03-22T16:02:01.589Z,203.74
2023-03-22T16:06:01.572Z,297.63
2023-03-22T16:10:01.535Z,176.03
2023-03-22T16:14:01.458Z,204.44
2023-03-22T16:18:01.417Z,213.14
2023-03-22T16:22:01.421Z,214.57
2023-03-22T16:26:01.357Z,220.09
2023-03-22T16:30:01.333Z,222.04
2023-03-22T16:34:01.269Z,214.75
2023-03-22T16:38:01.235Z,212.34
2023-03-22T16:42:01.309Z,207.15
2023-03-22T16:46:01.380Z,203.22
2023-03-22T16:50:01.413Z,199.69
2023-03-22T16:54:01.504Z,195.42
2023-03-22T16:58:01.557Z,195.26
2023-03-22T17:02:01.629Z,191.53
2023-03-22T17:06:01.719Z,187.64
2023-03-22T17:10:01.788Z,187.99
2023-03-22T17:14:01.866Z,188.66
2023-03-22T17:18:01.946Z,193.34
2023-03-22T17:22:02.102Z,184.73
2023-03-22T17:26:02.166Z,175.65
2023-03-22T17:30:02.286Z,171.01
2023-03-22T17:34:02.788Z,167.72
2023-03-22T17:38:02.951Z,164.18
2023-03-22T17:42:02.687Z,166.25
2023-03-22T17:46:49.066Z,169.14
2023-03-22T17:50:03.807Z,170.67
2023-03-22T17:54:35.505Z,168.27
